createdAt,value
2023-05-21T00:05:14.890Z,58.9
2023-05-21T00:11:06.353Z,58.9
2023-05-21T00:16:56.921Z,58.8
2023-05-21T00:22:49.389Z,58.8
2023-05-21T00:28:40.958Z,58.8
2023-05-21T00:34:17.696Z,58.7
2023-05-21T00:40:09.344Z,58.6
2023-05-21T00:57:13.721Z,58.5
2023-05-21T01:03:05.474Z,58.4
2023-05-21T01:08:41.021Z,58.4
2023-05-21T01:14:17.735Z,58.4
2023-05-21T01:19:54.225Z,58.3
2023-05-21T01:25:45.667Z,58.3
2023-05-21T01:31:38.089Z,58.3
2023-05-21T01:37:31.292Z,58.2
2023-05-21T01:43:22.152Z,58.1
2023-05-21T01:49:14.351Z,58.1
2023-05-21T01:55:05.874Z,58.1
2023-05-21T02:00:56.445Z,58
2023-05-21T02:06:49.365Z,57.9
2023-05-21T02:12:40.630Z,57.9
2023-05-21T02:18:32.660Z,57.9
2023-05-21T02:24:24.685Z,57.8
2023-05-21T02:41:29.855Z,57.6
2023-05-21T02:47:22.003Z,57.6
2023-05-21T02:53:13.300Z,57.6
2023-05-21T02:59:04.833Z,57.5
2023-05-21T03:04:57.371Z,57.4
2023-05-21T03:10:48.217Z,57.4
2023-05-21T03:16:41.104Z,57.4
2023-05-21T03:22:32.972Z,57.3
2023-05-21T03:28:24.789Z,57.3
2023-05-21T03:34:18.815Z,57.3
2023-05-21T03:40:10.273Z,57.2
2023-05-21T03:46:01.481Z,57.1
2023-05-21T03:51:54.308Z,57.1
2023-05-21T03:57:45.668Z,57.1
2023-05-21T04:03:39.294Z,57
2023-05-21T04:09:34.743Z,56.9
2023-05-21T04:15:28.198Z,56.9
2023-05-21T04:21:19.557Z,56.8
2023-05-21T04:27:11.461Z,56.7
2023-05-21T04:33:02.490Z,56.6
2023-05-21T04:38:38.229Z,56.6
2023-05-21T04:44:33.879Z,56.5
2023-05-21T04:50:25.638Z,56.4
2023-05-21T04:56:16.539Z,56.4
2023-05-21T05:02:12.416Z,56.3
2023-05-21T05:08:05.129Z,56.3
2023-05-21T05:13:57.703Z,56.2
2023-05-21T05:19:35.903Z,56.1
2023-05-21T05:25:12.011Z,56.1
2023-05-21T05:31:02.820Z,56.1
2023-05-21T05:36:54.390Z,56
2023-05-21T05:42:45.736Z,55.9
2023-05-21T05:48:40.636Z,55.9
2023-05-21T05:54:31.851Z,55.8
2023-05-21T06:00:23.992Z,55.8
2023-05-21T06:06:16.061Z,55.8
2023-05-21T06:11:53.763Z,55.7
2023-05-21T06:17:51.475Z,55.6
2023-05-21T06:23:42.507Z,55.6
2023-05-21T06:29:34.852Z,55.5
2023-05-21T06:35:27.189Z,55.5
2023-05-21T06:41:18.529Z,55.4
2023-05-21T06:47:10.262Z,55.4
2023-05-21T06:53:01.565Z,55.3
2023-05-21T06:58:55.596Z,55.3
2023-05-21T07:04:48.042Z,55.2
2023-05-21T07:10:39.175Z,55.2
2023-05-21T07:16:30.135Z,55.1
2023-05-21T07:22:21.982Z,55.1
2023-05-21T07:28:29.586Z,55
2023-05-21T07:34:20.777Z,54.9
2023-05-21T07:40:14.043Z,54.8
2023-05-21T07:46:05.941Z,54.8
2023-05-21T07:51:59.077Z,54.8
2023-05-21T07:57:52.917Z,54.7
2023-05-21T08:03:45.655Z,54.6
2023-05-21T08:09:39.934Z,54.6
2023-05-21T08:15:17.338Z,54.5
2023-05-21T08:21:12.688Z,54.5
2023-05-21T08:27:04.181Z,54.4
2023-05-21T08:32:56.469Z,54.4
2023-05-21T08:38:48.144Z,54.3
2023-05-21T08:44:56.024Z,54.3
2023-05-21T08:50:33.217Z,54.3
2023-05-21T08:56:33.303Z,54.2
2023-05-21T09:02:09.603Z,54.1
2023-05-21T09:08:17.281Z,54
2023-05-21T09:14:11.757Z,54.1
2023-05-21T09:20:03.601Z,54.4
2023-05-21T09:25:59.470Z,54.8
2023-05-21T09:31:53.853Z,55.1
2023-05-21T09:37:59.406Z,55.3
2023-05-21T09:43:55.719Z,55.4
2023-05-21T09:49:49.479Z,55.6
2023-05-21T09:55:41.284Z,55.8
2023-05-21T10:01:33.515Z,56.1
2023-05-21T10:07:26.662Z,56.5
2023-05-21T10:13:18.958Z,57
2023-05-21T10:19:12.378Z,57.5
2023-05-21T10:25:03.986Z,57.9
2023-05-21T10:30:58.852Z,58.3
2023-05-21T10:36:51.411Z,58.6
2023-05-21T10:42:44.626Z,59
2023-05-21T10:48:37.074Z,59.3
2023-05-21T10:54:16.374Z,59.4
2023-05-21T10:59:53.417Z,59.5
2023-05-21T11:05:46.049Z,59.5
2023-05-21T11:11:38.004Z,59.4
2023-05-21T11:17:14.308Z,59.4
2023-05-21T11:22:50.714Z,59.4
2023-05-21T11:28:29.163Z,59.4
2023-05-21T11:34:06.682Z,59.3
2023-05-21T11:39:59.654Z,59.3
2023-05-21T11:45:36.493Z,59.3
2023-05-21T11:51:32.867Z,59.3
2023-05-21T11:57:24.693Z,59.2
2023-05-21T12:03:18.007Z,59.2
2023-05-21T12:08:55.422Z,59.1
2023-05-21T12:15:03.604Z,59.1
2023-05-21T12:20:56.664Z,59
2023-05-21T12:26:48.096Z,59
2023-05-21T12:32:40.055Z,58.9
2023-05-21T12:38:32.261Z,58.9
2023-05-21T12:44:23.128Z,58.9
2023-05-21T12:50:14.728Z,58.8
2023-05-21T12:56:05.837Z,58.8
2023-05-21T13:01:42.722Z,58.8
2023-05-21T13:07:37.649Z,58.7
2023-05-21T13:13:33.545Z,58.7
2023-05-21T13:19:29.429Z,58.6
2023-05-21T13:36:38.864Z,58.5
2023-05-21T13:42:30.121Z,58.4
2023-05-21T13:48:26.192Z,58.4
2023-05-21T13:54:13.468Z,58.4
2023-05-21T14:00:06.709Z,58.3
2023-05-21T14:05:45.542Z,58.3
2023-05-21T14:11:38.015Z,58.2
2023-05-21T14:17:41.528Z,58.2
2023-05-21T14:23:18.164Z,58.1
2023-05-21T14:29:09.657Z,58.1
2023-05-21T14:35:02.219Z,58.1
2023-05-21T14:40:54.490Z,58
2023-05-21T14:46:58.574Z,57.9
2023-05-21T14:52:51.080Z,57.9
2023-05-21T14:58:44.051Z,57.9
2023-05-21T15:04:37.888Z,57.8
2023-05-21T15:21:44.918Z,57.7
2023-05-21T15:27:47.561Z,57.6
2023-05-21T15:33:41.322Z,57.6
2023-05-21T15:39:36.767Z,57.6
2023-05-21T15:45:29.559Z,57.5
2023-05-21T15:51:24.170Z,57.5
2023-05-21T15:57:00.854Z,57.4
2023-05-21T16:02:37.300Z,57.4
2023-05-21T16:08:14.950Z,57.3
2023-05-21T16:14:07.425Z,57.3
2023-05-21T16:19:59.810Z,57.3
2023-05-21T16:25:52.526Z,57.2
2023-05-21T16:31:44.912Z,57.1
2023-05-21T16:37:39.919Z,57.1
2023-05-21T16:43:34.331Z,57.1
2023-05-21T16:49:27.599Z,57
2023-05-21T16:54:48.241Z,57
2023-05-21T17:00:26.177Z,56.9
2023-05-21T17:06:19.487Z,56.9
2023-05-21T17:12:10.881Z,56.9
2023-05-21T17:18:19.359Z,56.8
2023-05-21T17:24:13.630Z,56.8
2023-05-21T17:30:05.743Z,56.8
2023-05-21T17:35:57.747Z,56.7
2023-05-21T17:41:34.189Z,56.6
2023-05-21T17:47:25.906Z,56.6
2023-05-21T17:53:19.897Z,56.6
2023-05-21T17:59:11.475Z,56.5
2023-05-21T18:05:03.784Z,56.4
2023-05-21T18:10:57.109Z,56.4
2023-05-21T18:16:49.067Z,56.4
2023-05-21T18:22:10.638Z,56.3
2023-05-21T18:28:03.211Z,56.3
2023-05-21T18:33:40.153Z,56.3
2023-05-21T18:39:31.756Z,56.2
2023-05-21T18:45:36.542Z,56.1
2023-05-21T18:51:29.074Z,56.1
2023-05-21T18:57:21.478Z,56.1
2023-05-21T19:03:14.414Z,56
2023-05-21T19:09:07.227Z,56
2023-05-21T19:14:59.254Z,55.9
2023-05-21T19:20:37.491Z,55.9
2023-05-21T19:26:42.480Z,55.9
2023-05-21T19:32:36.340Z,55.8
2023-05-21T19:38:38.950Z,55.8
2023-05-21T19:44:31.428Z,55.8
2023-05-21T19:50:08.436Z,55.7
2023-05-21T19:56:03.258Z,55.6
2023-05-21T20:01:59.324Z,55.6
2023-05-21T20:07:50.913Z,55.6
2023-05-21T20:13:43.364Z,55.5
2023-05-21T20:19:36.026Z,55.4
2023-05-21T20:25:27.991Z,55.4
2023-05-21T20:31:20.179Z,55.4
2023-05-21T20:37:21.297Z,55.3
2023-05-21T20:43:13.156Z,55.3
2023-05-21T20:48:50.963Z,55.3
2023-05-21T20:54:43.814Z,55.3
2023-05-21T21:00:52.371Z,55.2
2023-05-21T21:06:46.005Z,55.1
2023-05-21T21:12:57.585Z,55.1
2023-05-21T21:18:49.123Z,55.1
2023-05-21T21:24:41.462Z,55
2023-05-21T21:30:33.437Z,54.9
2023-05-21T21:36:25.084Z,54.9
2023-05-21T21:42:17.744Z,54.9
2023-05-21T21:48:09.796Z,54.8
2023-05-21T21:54:01.768Z,54.8
2023-05-21T21:59:54.399Z,54.8
2023-05-21T22:05:48.641Z,54.7
2023-05-21T22:11:40.562Z,54.7
2023-05-21T22:17:33.015Z,54.6
2023-05-21T22:23:34.014Z,54.6
2023-05-21T22:29:32.585Z,54.5
2023-05-21T22:35:25.529Z,54.5
2023-05-21T22:41:16.831Z,54.4
2023-05-21T22:47:08.008Z,54.4
2023-05-21T22:52:59.626Z,54.4
2023-05-21T22:58:35.252Z,54.3
2023-05-21T23:04:36.072Z,54.3
2023-05-21T23:10:34.894Z,54.3
2023-05-21T23:16:26.023Z,54.2
2023-05-21T23:22:18.351Z,54.1
2023-05-21T23:28:10.263Z,54.1
2023-05-21T23:34:02.352Z,54.1
2023-05-21T23:39:53.749Z,54
2023-05-21T23:45:45.731Z,54
2023-05-21T23:51:37.872Z,53.9
2023-05-21T23:57:13.097Z,53.9
